Time;durP1;ratioP1;P1;durP2;ratioP2;P2;SDS_P1;SDS_P2;PMS_P1;PMS_P2;Temp;Humidity;BMP_temperature;BMP_pressure;BME280_temperature;BME280_humidity;BME280_pressure;Samples;Min_cycle;Max_cycle;Signal;HPM_P1;HPM_P2
2021/09/21 00:00:01;;;;;;;2.43;1.33;;;13.00;99.90;;;;;;4996113;28;20468;-88
2021/09/21 00:02:29;;;;;;;1.07;0.93;;;13.00;99.90;;;;;;4995685;28;20437;-88
2021/09/21 00:04:55;;;;;;;1.53;0.83;;;13.00;99.90;;;;;;4996048;28;20456;-88
2021/09/21 00:07:22;;;;;;;2.23;1.10;;;13.00;99.90;;;;;;4995907;28;20453;-88
2021/09/21 00:09:49;;;;;;;1.27;1.17;;;12.90;99.90;;;;;;4995648;28;20492;-88
2021/09/21 00:12:17;;;;;;;3.60;0.77;;;13.00;99.90;;;;;;4995851;28;20461;-88
2021/09/21 00:14:43;;;;;;;0.90;0.70;;;13.00;99.90;;;;;;4995713;28;20461;-88
2021/09/21 00:17:10;;;;;;;0.60;0.60;;;13.00;99.90;;;;;;4995323;28;20944;-87
2021/09/21 00:19:38;;;;;;;3.70;1.03;;;13.00;99.90;;;;;;4995600;28;20476;-88
2021/09/21 00:22:05;;;;;;;1.20;1.00;;;13.00;99.90;;;;;;4995946;28;20510;-88
2021/09/21 00:24:32;;;;;;;1.33;0.93;;;13.00;99.90;;;;;;4995614;28;20463;-89
2021/09/21 00:26:59;;;;;;;3.13;1.00;;;13.00;99.90;;;;;;4996161;28;20492;-88
2021/09/21 00:29:26;;;;;;;4.83;1.00;;;13.00;99.90;;;;;;4995513;28;20476;-88
2021/09/21 00:31:59;;;;;;;1.23;1.23;;;13.00;99.90;;;;;;4995352;28;20495;-88
2021/09/21 00:34:28;;;;;;;1.40;0.77;;;13.00;99.90;;;;;;4995559;28;20459;-88
2021/09/21 00:36:56;;;;;;;1.53;0.90;;;13.00;99.90;;;;;;4995622;28;20436;-88
2021/09/21 00:39:23;;;;;;;1.17;1.07;;;13.00;99.90;;;;;;4994257;28;20552;-88
2021/09/21 00:41:51;;;;;;;0.53;0.53;;;13.00;99.90;;;;;;4995342;28;20441;-88
2021/09/21 00:44:22;;;;;;;1.93;1.30;;;13.00;99.90;;;;;;4995377;28;20448;-88
2021/09/21 00:46:49;;;;;;;1.87;0.70;;;13.00;99.90;;;;;;4995926;28;20456;-88
2021/09/21 00:49:16;;;;;;;2.00;1.17;;;13.00;99.90;;;;;;4994938;28;20453;-88
2021/09/21 00:51:43;;;;;;;1.53;1.20;;;13.00;99.90;;;;;;4994835;28;20519;-88
2021/09/21 00:54:11;;;;;;;0.80;0.70;;;13.00;99.90;;;;;;4995278;28;20524;-88
2021/09/21 00:56:39;;;;;;;1.77;1.13;;;13.00;99.90;;;;;;4994743;28;20462;-88
2021/09/21 00:59:06;;;;;;;0.73;0.73;;;13.00;99.90;;;;;;4994905;28;20456;-88
2021/09/21 01:01:33;;;;;;;1.43;1.10;;;12.90;99.90;;;;;;4994878;28;20437;-88
2021/09/21 01:04:00;;;;;;;0.80;0.70;;;13.00;99.90;;;;;;4994992;28;20815;-88
2021/09/21 01:06:27;;;;;;;2.83;0.90;;;13.00;99.90;;;;;;4995364;28;20467;-88
2021/09/21 01:08:54;;;;;;;1.17;0.70;;;12.90;99.90;;;;;;4995599;28;20831;-88
2021/09/21 01:11:22;;;;;;;1.20;0.57;;;13.00;99.90;;;;;;4995163;28;20484;-87
2021/09/21 01:13:49;;;;;;;0.73;0.70;;;13.00;99.90;;;;;;4994918;28;20463;-88
2021/09/21 01:16:16;;;;;;;0.90;0.73;;;13.00;99.90;;;;;;4995309;28;20821;-88
2021/09/21 01:18:43;;;;;;;1.83;0.90;;;13.00;99.90;;;;;;4994725;28;20818;-88
2021/09/21 01:21:12;;;;;;;1.17;0.90;;;13.00;99.90;;;;;;4995145;28;20445;-88
2021/09/21 01:23:47;;;;;;;3.70;1.47;;;13.00;99.90;;;;;;4994815;28;20460;-88
2021/09/21 01:26:14;;;;;;;1.37;0.77;;;13.00;99.90;;;;;;4994920;28;20911;-88
2021/09/21 01:28:41;;;;;;;2.00;1.13;;;13.00;99.90;;;;;;4994842;28;20447;-88
2021/09/21 01:31:08;;;;;;;1.50;1.00;;;13.00;99.90;;;;;;4995263;28;20495;-88
2021/09/21 01:33:34;;;;;;;0.70;0.50;;;13.00;99.90;;;;;;4994862;28;20462;-88
2021/09/21 01:36:01;;;;;;;1.73;1.30;;;12.90;99.90;;;;;;4994866;28;20459;-88
2021/09/21 01:38:28;;;;;;;0.60;0.60;;;13.00;99.90;;;;;;4995012;28;20835;-88
2021/09/21 01:40:57;;;;;;;1.30;1.20;;;13.00;99.90;;;;;;4994365;28;21018;-88
2021/09/21 01:43:24;;;;;;;2.10;1.33;;;12.90;99.90;;;;;;4994767;28;20432;-88
2021/09/21 01:45:50;;;;;;;0.90;0.70;;;13.00;99.90;;;;;;4994744;28;20452;-88
2021/09/21 01:48:17;;;;;;;1.43;1.00;;;12.90;99.90;;;;;;4994416;28;20444;-88
2021/09/21 01:50:49;;;;;;;2.13;1.43;;;12.90;99.90;;;;;;4994851;28;20873;-88
2021/09/21 01:53:23;;;;;;;2.57;1.00;;;12.90;99.90;;;;;;4998570;28;20479;-88
2021/09/21 01:58:47;;;;;;;0.73;0.53;;;12.80;99.90;;;;;;4998939;28;20400;-88
2021/09/21 02:01:14;;;;;;;1.10;1.00;;;12.90;99.90;;;;;;4998476;28;20464;-88
2021/09/21 02:03:42;;;;;;;1.27;0.70;;;12.80;99.90;;;;;;4998213;28;20460;-88
2021/09/21 02:06:09;;;;;;;1.20;1.10;;;12.90;99.90;;;;;;4998133;28;20540;-88
2021/09/21 02:08:36;;;;;;;1.30;1.13;;;12.90;99.90;;;;;;4997827;28;20484;-88
2021/09/21 02:11:03;;;;;;;0.70;0.60;;;12.90;99.90;;;;;;4998055;28;20499;-88
2021/09/21 02:13:30;;;;;;;0.80;0.60;;;12.90;99.90;;;;;;4997944;28;20460;-88
2021/09/21 02:15:58;;;;;;;1.23;0.70;;;12.80;99.90;;;;;;4997996;28;20451;-88
2021/09/21 02:18:25;;;;;;;1.73;1.17;;;12.80;99.90;;;;;;4997677;28;20437;-88
2021/09/21 02:20:52;;;;;;;1.33;1.00;;;12.80;99.90;;;;;;4997600;28;20467;-87
2021/09/21 02:23:19;;;;;;;0.73;0.73;;;12.90;99.90;;;;;;4997845;28;20460;-88
2021/09/21 02:25:46;;;;;;;1.07;0.70;;;12.80;99.90;;;;;;4997823;28;20464;-88
2021/09/21 02:28:13;;;;;;;1.60;1.10;;;12.90;99.90;;;;;;4997929;28;20441;-88
2021/09/21 02:30:40;;;;;;;0.70;0.70;;;12.80;99.90;;;;;;4997616;28;20488;-88
2021/09/21 02:33:08;;;;;;;2.57;0.80;;;12.70;99.90;;;;;;4997708;28;20452;-88
2021/09/21 02:35:35;;;;;;;2.77;1.00;;;12.70;99.90;;;;;;4997437;28;20433;-88
2021/09/21 02:38:02;;;;;;;1.03;0.50;;;12.70;99.90;;;;;;4997637;28;20453;-88
2021/09/21 02:40:30;;;;;;;1.77;0.87;;;12.70;99.90;;;;;;4997287;28;20510;-88
2021/09/21 02:42:57;;;;;;;1.30;1.20;;;12.70;99.90;;;;;;4997767;28;20456;-88
2021/09/21 02:45:25;;;;;;;1.83;0.70;;;12.70;99.90;;;;;;4998043;28;20452;-88
2021/09/21 02:47:51;;;;;;;1.07;0.97;;;12.70;99.90;;;;;;4997724;28;20463;-88
2021/09/21 02:50:20;;;;;;;2.60;1.17;;;12.70;99.90;;;;;;4997472;28;20975;-88
2021/09/21 02:52:46;;;;;;;1.27;0.80;;;12.70;99.90;;;;;;4997425;28;20448;-88
2021/09/21 02:55:13;;;;;;;0.60;0.60;;;12.70;99.90;;;;;;4997501;28;20448;-88
2021/09/21 02:57:40;;;;;;;2.33;0.80;;;12.70;99.90;;;;;;4997389;28;20952;-88
2021/09/21 03:00:09;;;;;;;1.10;0.50;;;12.70;99.90;;;;;;4997219;28;20464;-88
2021/09/21 03:02:36;;;;;;;1.87;1.00;;;12.70;99.90;;;;;;4996593;28;20440;-90
2021/09/21 03:05:07;;;;;;;1.17;0.70;;;12.70;99.90;;;;;;4997062;28;20543;-89
2021/09/21 03:07:38;;;;;;;4.37;1.30;;;12.70;99.90;;;;;;4997152;28;20436;-89
2021/09/21 03:10:17;;;;;;;3.40;0.97;;;12.60;99.90;;;;;;4996884;28;20459;-89
2021/09/21 03:18:25;;;;;;;1.70;1.07;;;12.60;99.90;;;;;;4996929;28;20404;-89
2021/09/21 03:20:53;;;;;;;2.03;0.70;;;12.60;99.90;;;;;;4996835;28;20460;-88
2021/09/21 03:23:21;;;;;;;0.93;0.93;;;12.60;99.90;;;;;;4996717;28;20456;-88
2021/09/21 03:25:48;;;;;;;1.47;0.70;;;12.60;99.90;;;;;;4996382;28;20940;-88
2021/09/21 03:28:15;;;;;;;0.83;0.63;;;12.50;99.90;;;;;;4996741;28;20452;-88
2021/09/21 03:30:41;;;;;;;0.57;0.57;;;12.60;99.90;;;;;;4996449;28;20461;-88
2021/09/21 03:33:08;;;;;;;2.50;1.20;;;12.50;99.90;;;;;;4996498;28;20457;-88
2021/09/21 03:35:35;;;;;;;1.87;0.70;;;12.50;99.90;;;;;;4996559;28;20532;-88
2021/09/21 03:38:02;;;;;;;3.13;0.97;;;12.60;99.90;;;;;;4997028;28;20456;-88
2021/09/21 03:40:31;;;;;;;2.00;1.33;;;12.50;99.90;;;;;;4996344;28;20487;-88
2021/09/21 03:42:58;;;;;;;2.10;1.20;;;12.50;99.90;;;;;;4996921;28;20448;-89
2021/09/21 03:45:26;;;;;;;1.20;0.70;;;12.50;99.90;;;;;;4996365;28;20453;-88
2021/09/21 03:47:53;;;;;;;2.80;0.80;;;12.50;99.90;;;;;;4996309;28;20453;-89
2021/09/21 03:50:20;;;;;;;1.30;1.20;;;12.60;99.90;;;;;;4996158;28;20479;-88
2021/09/21 03:52:47;;;;;;;0.80;0.63;;;12.50;99.90;;;;;;4996191;28;20495;-88
2021/09/21 03:55:14;;;;;;;2.77;1.37;;;12.50;99.90;;;;;;4995987;28;20444;-88
2021/09/21 03:57:42;;;;;;;3.23;1.30;;;12.60;99.90;;;;;;4996088;28;20457;-88
2021/09/21 04:00:11;;;;;;;1.50;0.73;;;12.60;99.90;;;;;;4996005;28;20464;-88
2021/09/21 04:02:37;;;;;;;2.80;1.23;;;12.60;99.90;;;;;;4995749;28;20441;-88
2021/09/21 04:05:05;;;;;;;1.07;0.93;;;12.60;99.90;;;;;;4996058;28;20448;-87
2021/09/21 04:07:32;;;;;;;1.47;0.80;;;12.60;99.90;;;;;;4995917;28;20826;-86
2021/09/21 04:09:58;;;;;;;1.87;0.70;;;12.50;99.90;;;;;;4995753;28;20479;-89
2021/09/21 04:12:25;;;;;;;2.40;0.80;;;12.60;99.90;;;;;;4995658;28;20487;-88
2021/09/21 04:14:53;;;;;;;1.27;1.07;;;12.60;99.90;;;;;;4994945;28;20436;-88
2021/09/21 04:17:20;;;;;;;2.07;0.80;;;12.50;99.90;;;;;;4995998;28;20453;-89
2021/09/21 04:19:47;;;;;;;0.83;0.83;;;12.50;99.90;;;;;;4995619;28;20459;-87
2021/09/21 04:22:13;;;;;;;1.83;1.10;;;12.60;99.90;;;;;;4995829;28;20448;-88
2021/09/21 04:24:40;;;;;;;3.90;1.00;;;12.50;99.90;;;;;;4995549;28;20448;-87
2021/09/21 04:27:08;;;;;;;2.80;1.07;;;12.50;99.90;;;;;;4995555;28;20437;-88
2021/09/21 04:29:35;;;;;;;1.00;0.70;;;12.60;99.90;;;;;;4995705;28;20472;-87
2021/09/21 04:32:04;;;;;;;2.87;1.00;;;12.60;99.90;;;;;;4995565;28;20472;-87
2021/09/21 04:34:33;;;;;;;2.00;0.90;;;12.60;99.90;;;;;;4995430;28;20472;-88
2021/09/21 04:37:01;;;;;;;4.50;1.17;;;12.60;99.90;;;;;;4995507;28;20433;-88
2021/09/21 04:39:28;;;;;;;1.93;1.27;;;12.60;99.90;;;;;;4995308;28;20496;-87
2021/09/21 04:41:55;;;;;;;3.07;0.77;;;12.60;99.90;;;;;;4995284;28;20451;-87
2021/09/21 04:44:22;;;;;;;1.43;0.70;;;12.60;99.90;;;;;;4995427;28;20460;-88
2021/09/21 04:46:49;;;;;;;1.60;0.90;;;12.50;99.90;;;;;;4995299;28;20455;-87
2021/09/21 04:49:17;;;;;;;2.10;1.00;;;12.50;99.90;;;;;;4995128;28;20500;-87
2021/09/21 04:51:45;;;;;;;1.87;0.70;;;12.50;99.90;;;;;;4995146;28;20496;-87
2021/09/21 04:54:12;;;;;;;4.27;1.20;;;12.50;99.90;;;;;;4995161;28;20592;-88
2021/09/21 04:56:39;;;;;;;2.23;1.20;;;12.50;99.90;;;;;;4995505;28;20449;-88
2021/09/21 04:59:05;;;;;;;0.83;0.60;;;12.60;99.90;;;;;;4995159;28;20479;-88
2021/09/21 05:01:33;;;;;;;0.63;0.53;;;12.60;99.90;;;;;;4994868;28;20448;-88
2021/09/21 05:03:59;;;;;;;2.37;0.90;;;12.50;99.90;;;;;;4995083;28;20460;-89
2021/09/21 05:06:35;;;;;;;4.10;1.10;;;12.50;99.90;;;;;;4995092;28;20858;-88
2021/09/21 05:09:02;;;;;;;0.43;0.43;;;12.50;99.90;;;;;;4995154;28;20472;-89
2021/09/21 05:11:29;;;;;;;1.17;0.63;;;12.50;99.90;;;;;;4994897;28;20484;-90
2021/09/21 05:13:55;;;;;;;2.67;1.27;;;12.50;99.90;;;;;;4995129;28;20936;-87
2021/09/21 05:16:22;;;;;;;0.97;0.60;;;12.50;99.90;;;;;;4994745;28;20440;-88
2021/09/21 05:18:49;;;;;;;0.60;0.57;;;12.50;99.90;;;;;;4994955;28;20461;-88
2021/09/21 05:21:15;;;;;;;4.67;0.80;;;12.40;99.90;;;;;;4994999;28;20788;-88
2021/09/21 05:23:44;;;;;;;2.83;1.10;;;12.40;99.90;;;;;;4995074;28;20447;-88
2021/09/21 05:26:10;;;;;;;1.43;0.87;;;12.40;99.90;;;;;;4995923;28;20452;-87
2021/09/21 05:28:37;;;;;;;1.77;1.20;;;12.40;99.90;;;;;;4998793;28;20457;-88
2021/09/21 05:31:04;;;;;;;1.37;0.60;;;12.40;99.90;;;;;;4998594;28;20460;-88
2021/09/21 05:33:30;;;;;;;7.10;1.00;;;12.40;99.90;;;;;;4998581;28;20488;-87
2021/09/21 05:35:57;;;;;;;1.33;0.83;;;12.30;99.90;;;;;;4998637;28;20443;-88
2021/09/21 05:38:24;;;;;;;1.43;0.87;;;12.30;99.90;;;;;;4998739;28;20460;-88
2021/09/21 05:40:52;;;;;;;1.90;1.53;;;12.30;99.90;;;;;;4998250;28;20480;-88
2021/09/21 05:43:19;;;;;;;1.87;1.10;;;12.30;99.90;;;;;;4998444;28;20440;-88
2021/09/21 05:45:46;;;;;;;1.80;0.70;;;12.30;99.90;;;;;;4998484;28;20952;-88
2021/09/21 05:48:12;;;;;;;1.50;1.10;;;12.30;99.90;;;;;;4998632;28;20447;-88
2021/09/21 05:50:39;;;;;;;1.53;0.60;;;12.30;99.90;;;;;;4998432;28;20448;-88
2021/09/21 05:53:06;;;;;;;1.90;0.80;;;12.30;99.90;;;;;;4998259;28;20491;-88
2021/09/21 05:55:33;;;;;;;1.93;0.67;;;12.20;99.90;;;;;;4998603;28;20809;-89
2021/09/21 05:58:01;;;;;;;8.23;1.27;;;12.20;99.90;;;;;;4998596;28;20452;-88
2021/09/21 06:00:28;;;;;;;0.70;0.70;;;12.30;99.90;;;;;;4998249;28;20471;-89
2021/09/21 06:02:54;;;;;;;1.23;1.00;;;12.40;99.90;;;;;;4998136;28;20459;-88
2021/09/21 06:05:21;;;;;;;2.10;0.63;;;12.30;99.90;;;;;;4998253;28;20823;-89
2021/09/21 06:07:50;;;;;;;0.73;0.60;;;12.30;99.90;;;;;;4998342;28;20456;-89
2021/09/21 06:10:17;;;;;;;3.27;0.80;;;12.20;99.90;;;;;;4998052;28;20468;-89
2021/09/21 06:12:44;;;;;;;3.17;0.80;;;12.30;99.90;;;;;;4998530;28;20476;-89
2021/09/21 06:15:14;;;;;;;0.87;0.70;;;12.30;99.90;;;;;;4998133;28;20436;-88
2021/09/21 06:17:41;;;;;;;1.90;0.60;;;12.30;99.90;;;;;;4998242;28;20429;-87
2021/09/21 06:20:10;;;;;;;1.13;0.93;;;12.20;99.90;;;;;;4997666;28;20476;-88
2021/09/21 06:22:38;;;;;;;5.00;1.53;;;12.30;99.90;;;;;;4997887;28;20796;-88
2021/09/21 06:25:05;;;;;;;3.23;0.93;;;12.30;99.90;;;;;;4997911;28;20424;-88
2021/09/21 06:27:32;;;;;;;2.87;1.43;;;12.40;99.90;;;;;;4997916;28;20440;-88
2021/09/21 06:29:59;;;;;;;2.17;0.57;;;12.40;99.90;;;;;;4997740;28;20472;-88
2021/09/21 06:32:27;;;;;;;2.43;1.67;;;12.40;99.90;;;;;;4997557;28;20472;-88
2021/09/21 06:34:54;;;;;;;1.10;1.10;;;12.40;99.90;;;;;;4997590;28;20436;-89
2021/09/21 06:37:21;;;;;;;1.80;0.73;;;12.40;99.90;;;;;;4996635;28;20437;-87
2021/09/21 06:39:48;;;;;;;1.50;1.20;;;12.40;99.90;;;;;;4997064;28;20468;-87
2021/09/21 06:42:15;;;;;;;2.87;1.67;;;12.50;99.90;;;;;;4997638;28;20445;-88
2021/09/21 06:44:41;;;;;;;1.73;0.80;;;12.60;99.90;;;;;;4997596;28;20444;-89
2021/09/21 06:47:08;;;;;;;1.60;0.80;;;12.70;99.90;;;;;;4997784;28;20451;-87
2021/09/21 06:49:36;;;;;;;2.40;0.80;;;12.80;99.90;;;;;;4997432;28;20827;-91
2021/09/21 06:52:04;;;;;;;1.43;0.93;;;13.00;99.90;;;;;;4997152;28;20475;-89
2021/09/21 06:54:30;;;;;;;1.37;1.00;;;13.20;99.90;;;;;;4997341;28;20443;-88
2021/09/21 06:56:57;;;;;;;0.97;0.80;;;13.10;99.90;;;;;;4997139;28;20433;-90
2021/09/21 06:59:24;;;;;;;1.80;0.67;;;13.30;99.90;;;;;;4996948;28;20462;-87
2021/09/21 07:01:51;;;;;;;2.00;0.60;;;13.30;99.90;;;;;;4996871;28;20449;-88
2021/09/21 07:04:17;;;;;;;1.43;1.33;;;13.30;99.90;;;;;;4997136;28;20967;-88
2021/09/21 07:06:45;;;;;;;0.73;0.53;;;13.30;99.90;;;;;;4997471;28;20452;-88
2021/09/21 07:09:13;;;;;;;0.90;0.70;;;13.30;99.90;;;;;;4996981;28;20473;-88
2021/09/21 07:11:40;;;;;;;1.47;0.70;;;13.40;99.90;;;;;;4996778;28;20448;-88
2021/09/21 07:14:06;;;;;;;2.00;0.70;;;13.50;99.90;;;;;;4996664;28;20987;-90
2021/09/21 07:16:33;;;;;;;1.87;0.97;;;13.50;99.90;;;;;;4996889;28;20509;-90
2021/09/21 07:19:00;;;;;;;1.27;0.70;;;13.60;99.90;;;;;;4996964;28;20465;-89
2021/09/21 07:21:27;;;;;;;1.97;0.90;;;13.50;99.90;;;;;;4996767;28;20452;-90
2021/09/21 07:23:55;;;;;;;0.70;0.70;;;13.50;99.90;;;;;;4996808;28;20476;-89
2021/09/21 07:26:22;;;;;;;0.80;0.60;;;13.50;99.90;;;;;;4996425;28;20444;-87
2021/09/21 07:28:49;;;;;;;2.00;1.10;;;13.50;99.90;;;;;;4997199;28;20991;-87
2021/09/21 07:31:16;;;;;;;0.53;0.50;;;13.50;99.90;;;;;;4996372;28;20441;-87
2021/09/21 07:33:43;;;;;;;0.97;0.63;;;13.60;99.90;;;;;;4996468;28;20563;-91
2021/09/21 07:36:10;;;;;;;2.30;0.50;;;13.60;99.90;;;;;;4997280;28;20437;-91
2021/09/21 07:38:37;;;;;;;0.80;0.70;;;13.80;99.90;;;;;;4996262;28;20440;-90
2021/09/21 07:41:05;;;;;;;2.30;0.87;;;13.90;99.90;;;;;;4995968;28;20504;-87
2021/09/21 07:43:32;;;;;;;1.23;0.73;;;13.90;99.90;;;;;;4996051;28;20444;-89
2021/09/21 07:45:59;;;;;;;1.63;0.80;;;13.80;99.90;;;;;;4996609;28;20464;-88
2021/09/21 07:48:26;;;;;;;1.00;0.80;;;13.80;99.90;;;;;;4996423;28;20459;-91
2021/09/21 07:50:52;;;;;;;2.40;1.00;;;13.80;99.90;;;;;;4996152;28;20551;-90
2021/09/21 07:53:19;;;;;;;3.43;1.00;;;13.90;99.90;;;;;;4996252;28;20484;-89
2021/09/21 07:55:50;;;;;;;3.03;0.70;;;13.90;99.90;;;;;;4995974;28;20524;-90
2021/09/21 07:58:18;;;;;;;2.43;1.10;;;13.90;99.90;;;;;;4996328;28;20524;-89
2021/09/21 08:00:46;;;;;;;2.00;1.37;;;14.00;99.90;;;;;;4996036;28;20557;-91
2021/09/21 08:03:13;;;;;;;0.80;0.70;;;14.00;99.90;;;;;;4996176;28;20456;-90
2021/09/21 08:05:40;;;;;;;4.13;1.10;;;14.10;99.90;;;;;;4995863;28;20470;-91
2021/09/21 08:08:08;;;;;;;1.40;0.97;;;14.10;99.90;;;;;;4995893;28;20492;-89
2021/09/21 08:10:36;;;;;;;2.10;1.20;;;14.20;99.90;;;;;;4995752;28;20472;-91
2021/09/21 08:13:03;;;;;;;2.00;1.13;;;14.20;99.90;;;;;;4996049;28;20499;-89
2021/09/21 08:15:32;;;;;;;2.43;1.03;;;14.20;99.90;;;;;;4995793;28;20443;-88
2021/09/21 08:17:58;;;;;;;1.40;0.87;;;14.20;99.90;;;;;;4995828;28;20433;-89
2021/09/21 08:20:26;;;;;;;4.27;0.77;;;14.30;99.90;;;;;;4995659;28;20848;-90
2021/09/21 08:22:53;;;;;;;1.33;0.93;;;14.30;99.90;;;;;;4995715;28;20512;-89
2021/09/21 08:25:20;;;;;;;1.90;1.13;;;14.40;99.90;;;;;;4995345;28;20480;-90
2021/09/21 08:27:47;;;;;;;1.80;0.80;;;14.40;99.90;;;;;;4995636;28;20931;-89
2021/09/21 08:30:17;;;;;;;1.10;1.00;;;14.40;99.90;;;;;;4995747;28;20457;-86
2021/09/21 08:32:45;;;;;;;2.17;0.67;;;14.60;99.90;;;;;;4995380;28;20473;-87
2021/09/21 08:35:12;;;;;;;3.37;0.70;;;14.70;99.90;;;;;;4995198;28;20448;-88
2021/09/21 08:37:39;;;;;;;0.70;0.70;;;14.70;99.90;;;;;;4995962;28;20433;-89
2021/09/21 08:40:08;;;;;;;0.80;0.53;;;14.90;99.90;;;;;;4995300;28;21103;-91
2021/09/21 08:42:34;;;;;;;1.57;0.90;;;15.20;99.90;;;;;;4995295;28;20775;-88
2021/09/21 08:45:02;;;;;;;1.73;0.87;;;15.40;99.90;;;;;;4995397;28;20429;-87
2021/09/21 08:47:30;;;;;;;4.53;1.70;;;15.60;99.90;;;;;;4995352;28;20913;-88
2021/09/21 08:49:58;;;;;;;0.83;0.73;;;15.70;99.90;;;;;;4995133;28;20479;-85
2021/09/21 08:52:25;;;;;;;2.70;1.00;;;15.90;99.90;;;;;;4996060;28;20950;-89
2021/09/21 08:54:52;;;;;;;3.93;1.00;;;16.00;99.90;;;;;;4995113;28;20436;-87
2021/09/21 08:57:19;;;;;;;1.37;1.27;;;16.00;99.90;;;;;;4995010;28;20460;-88
2021/09/21 08:59:52;;;;;;;1.00;0.80;;;16.20;99.90;;;;;;4994922;28;20477;-87
2021/09/21 09:02:21;;;;;;;1.53;1.27;;;16.50;99.90;;;;;;4994764;28;20885;-88
2021/09/21 09:05:02;;;;;;;1.00;0.80;;;17.00;99.90;;;;;;4995023;28;20452;-88
2021/09/21 09:07:29;;;;;;;2.73;1.23;;;17.60;99.90;;;;;;4995042;28;20440;-88
2021/09/21 09:10:03;;;;;;;1.20;1.10;;;17.90;99.90;;;;;;4995034;28;20485;-87
2021/09/21 09:12:33;;;;;;;0.93;0.77;;;18.30;99.90;;;;;;4994907;28;20436;-89
2021/09/21 09:15:08;;;;;;;1.23;0.77;;;18.50;99.90;;;;;;4995043;28;20512;-87
2021/09/21 09:17:35;;;;;;;1.13;0.80;;;18.30;99.90;;;;;;4995267;28;20443;-88
2021/09/21 09:20:03;;;;;;;1.60;1.50;;;17.90;99.90;;;;;;4995210;28;20498;-87
2021/09/21 09:22:30;;;;;;;2.03;0.70;;;17.80;99.90;;;;;;4995431;28;20957;-87
2021/09/21 09:24:59;;;;;;;0.93;0.77;;;17.80;99.90;;;;;;4995021;28;20452;-91
2021/09/21 09:27:36;;;;;;;5.63;2.10;;;17.90;99.90;;;;;;4995028;28;20955;-86
2021/09/21 09:30:05;;;;;;;1.30;0.77;;;17.90;99.90;;;;;;4994833;28;20479;-89
2021/09/21 09:32:43;;;;;;;1.23;1.13;;;17.70;99.90;;;;;;4993900;28;20448;-87
2021/09/21 09:35:12;;;;;;;1.33;0.77;;;17.60;99.90;;;;;;4994946;28;20479;-89
2021/09/21 09:37:40;;;;;;;1.37;0.70;;;17.50;99.90;;;;;;4995035;28;20858;-88
2021/09/21 09:40:11;;;;;;;1.57;0.63;;;17.40;99.90;;;;;;4994573;28;20906;-87
2021/09/21 09:42:41;;;;;;;0.60;0.50;;;17.60;99.90;;;;;;4994593;28;20437;-87
2021/09/21 09:45:09;;;;;;;3.73;1.73;;;17.90;99.90;;;;;;4994976;28;20449;-86
2021/09/21 09:47:45;;;;;;;0.87;0.83;;;18.10;99.90;;;;;;4994776;28;20829;-87
2021/09/21 09:50:15;;;;;;;1.17;0.70;;;18.20;99.90;;;;;;4994676;28;20523;-89
2021/09/21 09:52:42;;;;;;;1.10;0.60;;;18.30;99.90;;;;;;4994726;28;20444;-87
2021/09/21 09:55:10;;;;;;;3.63;1.03;;;18.20;99.90;;;;;;4994860;28;20436;-86
2021/09/21 09:57:42;;;;;;;1.50;0.80;;;17.90;99.90;;;;;;4994908;28;20441;-86
2021/09/21 10:00:09;;;;;;;1.70;0.70;;;17.70;99.90;;;;;;4994639;28;20836;-85
2021/09/21 10:02:36;;;;;;;0.70;0.70;;;17.80;99.90;;;;;;4995194;28;20793;-87
2021/09/21 10:05:03;;;;;;;1.30;0.80;;;17.90;99.90;;;;;;4994652;28;20413;-87
2021/09/21 10:07:32;;;;;;;1.00;0.70;;;18.10;99.90;;;;;;4994676;28;20441;-86
2021/09/21 10:09:59;;;;;;;1.90;0.90;;;18.30;99.90;;;;;;4994398;28;20983;-86
2021/09/21 10:12:26;;;;;;;1.60;0.90;;;18.50;99.60;;;;;;4996221;28;20436;-88
2021/09/21 10:14:53;;;;;;;1.23;1.00;;;18.70;98.30;;;;;;4997955;28;20483;-88
2021/09/21 10:17:25;;;;;;;1.93;0.83;;;18.90;98.10;;;;;;4997872;28;20413;-86
2021/09/21 10:19:55;;;;;;;1.20;1.10;;;18.90;98.90;;;;;;4997780;28;20519;-85
2021/09/21 10:22:27;;;;;;;1.63;1.10;;;19.00;98.80;;;;;;4997959;28;20413;-86
2021/09/21 10:24:55;;;;;;;1.87;1.47;;;19.30;98.80;;;;;;4997863;28;20638;-87
2021/09/21 10:27:24;;;;;;;0.93;0.83;;;19.60;97.50;;;;;;4997549;28;20440;-85
2021/09/21 10:29:59;;;;;;;0.73;0.70;;;19.60;96.20;;;;;;4997764;28;20453;-87
2021/09/21 10:32:27;;;;;;;1.40;1.00;;;19.50;97.20;;;;;;4997704;28;20503;-86
2021/09/21 10:34:53;;;;;;;2.50;1.00;;;19.30;97.80;;;;;;4997756;28;20476;-86
2021/09/21 10:37:23;;;;;;;1.67;0.60;;;18.90;96.40;;;;;;4998223;28;20484;-86
2021/09/21 10:40:01;;;;;;;1.73;1.03;;;18.60;97.00;;;;;;4997331;28;20487;-86
2021/09/21 10:42:28;;;;;;;1.70;1.17;;;18.20;97.90;;;;;;4997873;28;20417;-86
2021/09/21 10:44:58;;;;;;;1.37;0.90;;;18.10;97.10;;;;;;4998160;28;20426;-85
2021/09/21 10:47:26;;;;;;;1.33;0.83;;;18.00;97.50;;;;;;4997273;28;20491;-85
2021/09/21 10:49:54;;;;;;;1.57;1.37;;;17.90;98.40;;;;;;4997302;28;20475;-86
2021/09/21 10:52:27;;;;;;;1.17;1.07;;;17.90;98.70;;;;;;4997101;28;20441;-87
2021/09/21 10:54:56;;;;;;;3.30;1.57;;;18.00;99.10;;;;;;4997734;28;20480;-89
2021/09/21 14:02:13;;;;;;;1.67;1.00;;;16.40;99.90;;;;;;5337790;23;20476;-82
2021/09/21 17:58:01;;;;;;;0.80;0.80;;;13.50;99.90;;;;;;6085948;23;20397;31
2021/09/21 18:00:30;;;;;;;0.80;0.60;;;13.40;99.90;;;;;;4938117;29;21025;-85
2021/09/21 18:02:58;;;;;;;1.50;0.60;;;13.40;99.90;;;;;;4939677;29;20454;-85
2021/09/21 18:05:25;;;;;;;0.80;0.50;;;13.40;99.90;;;;;;4939199;29;20998;-85
2021/09/21 18:07:53;;;;;;;1.40;0.70;;;13.40;99.90;;;;;;4939697;29;20447;-85
2021/09/21 18:10:21;;;;;;;0.50;0.50;;;13.30;99.90;;;;;;4939676;29;20466;-85
2021/09/21 18:12:48;;;;;;;0.80;0.80;;;13.30;99.90;;;;;;4939294;29;20443;-85
2021/09/21 18:15:43;;;;;;;1.60;1.23;;;13.20;99.90;;;;;;4939664;29;20853;-86
2021/09/21 18:19:10;;;;;;;0.50;0.40;;;13.10;99.90;;;;;;4939227;29;20991;-85
2021/09/21 18:22:27;;;;;;;0.70;0.70;;;13.10;99.90;;;;;;4939564;29;20454;-85
2021/09/21 18:24:54;;;;;;;2.33;0.50;;;13.00;99.90;;;;;;4939095;29;20439;-86
2021/09/21 18:27:20;;;;;;;0.70;0.63;;;12.90;99.90;;;;;;4939179;29;20435;-86
2021/09/21 18:29:47;;;;;;;2.07;0.90;;;12.90;99.90;;;;;;4939067;29;20478;-85
2021/09/21 18:32:15;;;;;;;2.93;1.37;;;12.90;99.90;;;;;;4939322;29;20972;-85
2021/09/21 18:34:42;;;;;;;1.00;0.60;;;12.80;99.90;;;;;;4942345;29;20491;-86
2021/09/21 18:37:09;;;;;;;0.77;0.50;;;12.70;99.90;;;;;;4940173;29;20440;-85
2021/09/21 18:39:37;;;;;;;1.30;0.70;;;12.70;99.90;;;;;;4939085;29;20481;-86
2021/09/21 18:42:04;;;;;;;1.57;0.70;;;12.70;99.90;;;;;;4938670;29;20977;-85
2021/09/21 18:44:30;;;;;;;1.33;0.60;;;12.60;99.90;;;;;;4938741;29;20447;-86
2021/09/21 18:46:57;;;;;;;0.83;0.80;;;12.60;99.90;;;;;;4939075;29;20462;-85
2021/09/21 18:49:25;;;;;;;1.23;1.10;;;12.60;99.90;;;;;;4938457;29;20460;-85
2021/09/21 18:51:52;;;;;;;1.50;0.50;;;12.60;99.90;;;;;;4938549;29;20939;-85
2021/09/21 18:54:19;;;;;;;1.50;0.70;;;12.50;99.90;;;;;;4938930;29;20487;-85
2021/09/21 18:56:46;;;;;;;3.50;1.23;;;12.50;99.90;;;;;;4939031;29;20495;-85
2021/09/21 18:59:12;;;;;;;0.90;0.90;;;12.50;99.90;;;;;;4962286;28;20480;-85
2021/09/21 19:01:39;;;;;;;1.90;1.67;;;12.50;99.90;;;;;;4977100;28;20452;-85
2021/09/21 19:04:06;;;;;;;4.50;1.50;;;12.40;99.90;;;;;;4977189;28;20824;-85
2021/09/21 19:06:34;;;;;;;1.50;0.90;;;12.40;99.90;;;;;;4976996;28;20453;-85
2021/09/21 19:09:01;;;;;;;1.83;0.70;;;12.40;99.90;;;;;;4976806;28;20459;-85
2021/09/21 19:11:28;;;;;;;0.80;0.70;;;12.30;99.90;;;;;;4976680;28;20453;-85
2021/09/21 19:13:55;;;;;;;6.83;1.60;;;12.30;99.90;;;;;;4976917;28;20480;-86
2021/09/21 19:16:22;;;;;;;2.30;1.03;;;12.30;99.90;;;;;;4977264;28;20461;-85
2021/09/21 19:18:48;;;;;;;1.63;1.13;;;12.20;99.90;;;;;;4976544;28;20453;-85
2021/09/21 19:21:15;;;;;;;1.03;0.93;;;12.30;99.90;;;;;;4976647;28;20457;-85
2021/09/21 19:23:43;;;;;;;5.07;1.07;;;12.20;99.90;;;;;;4976718;28;20809;-85
2021/09/21 19:26:10;;;;;;;2.00;0.80;;;12.20;99.90;;;;;;4976581;28;20452;-81
2021/09/21 19:28:37;;;;;;;1.10;1.10;;;12.10;99.90;;;;;;4976324;28;20445;-81
2021/09/21 19:31:04;;;;;;;3.07;1.30;;;12.10;99.90;;;;;;4978283;28;20474;-81
2021/09/21 19:33:30;;;;;;;1.13;0.50;;;12.10;99.90;;;;;;4976110;28;20464;-81
2021/09/21 19:35:57;;;;;;;1.30;0.90;;;12.10;99.90;;;;;;4976021;28;20484;-81
2021/09/21 19:38:24;;;;;;;1.27;1.03;;;12.10;99.90;;;;;;4976162;28;20440;-81
2021/09/21 19:40:52;;;;;;;1.97;0.73;;;12.10;99.90;;;;;;4975839;28;20477;-81
2021/09/21 19:43:20;;;;;;;1.23;0.80;;;12.10;99.90;;;;;;4976506;28;20462;-81
2021/09/21 19:45:47;;;;;;;2.10;1.50;;;12.10;99.90;;;;;;4975613;28;20456;-81
2021/09/21 19:48:14;;;;;;;1.37;0.77;;;12.10;99.90;;;;;;4976203;28;20479;-81
2021/09/21 19:50:41;;;;;;;1.83;1.07;;;12.00;99.90;;;;;;4975550;28;20871;-81
2021/09/21 19:53:09;;;;;;;0.70;0.70;;;12.00;99.90;;;;;;4976065;28;20442;-81
2021/09/21 19:55:36;;;;;;;0.83;0.60;;;12.00;99.90;;;;;;4975577;28;20832;-81
2021/09/21 19:58:06;;;;;;;1.73;0.90;;;11.90;99.90;;;;;;4975726;28;20485;-82